createdAt,value
2022-09-15T00:01:56.883Z,20.18
2022-09-15T00:04:01.875Z,20.18
2022-09-15T00:06:07.897Z,20.19
2022-09-15T00:08:13.201Z,20.18
2022-09-15T00:10:18.372Z,20.18
2022-09-15T00:12:23.281Z,20.19
2022-09-15T00:14:28.309Z,20.19
2022-09-15T00:16:33.649Z,20.20
2022-09-15T00:18:39.820Z,20.20
2022-09-15T00:20:45.871Z,20.21
2022-09-15T00:22:50.959Z,20.23
2022-09-15T00:24:55.995Z,20.24
2022-09-15T00:27:00.697Z,20.26
2022-09-15T00:29:05.893Z,20.27
2022-09-15T00:31:13.406Z,20.29
2022-09-15T00:33:20.055Z,20.31
2022-09-15T00:35:24.924Z,20.34
2022-09-15T00:37:30.234Z,20.35
2022-09-15T00:39:35.398Z,20.37
2022-09-15T00:41:40.994Z,20.39
2022-09-15T00:43:50.769Z,20.41
2022-09-15T00:45:55.750Z,20.43
2022-09-15T00:48:00.925Z,20.44
2022-09-15T00:50:09.875Z,20.47
2022-09-15T00:52:21.528Z,20.48
2022-09-15T00:54:34.486Z,20.51
2022-09-15T00:56:41.580Z,20.51
2022-09-15T00:58:50.725Z,20.52
2022-09-15T01:00:59.044Z,20.51
2022-09-15T01:03:04.454Z,20.52
2022-09-15T01:05:12.469Z,20.53
2022-09-15T01:07:22.297Z,20.55
2022-09-15T01:09:37.208Z,20.57
2022-09-15T01:11:42.920Z,20.59
2022-09-15T01:13:47.617Z,20.61
2022-09-15T01:15:59.814Z,20.62
2022-09-15T01:18:15.485Z,20.64
2022-09-15T01:21:04.322Z,20.66
2022-09-15T01:23:34.353Z,20.67
2022-09-15T01:25:56.220Z,20.68
2022-09-15T01:28:28.313Z,20.69
2022-09-15T01:30:37.405Z,20.71
2022-09-15T01:33:16.700Z,20.71
2022-09-15T01:35:32.973Z,20.72
2022-09-15T01:37:43.347Z,20.74
2022-09-15T01:39:51.517Z,20.73
2022-09-15T01:41:59.025Z,20.73
2022-09-15T01:44:08.089Z,20.71
2022-09-15T01:46:15.019Z,20.72
2022-09-15T01:48:24.154Z,20.72
2022-09-15T01:50:33.262Z,20.70
2022-09-15T01:52:41.099Z,20.68
2022-09-15T01:54:48.581Z,20.68
2022-09-15T01:56:53.243Z,20.67
2022-09-15T01:58:58.053Z,20.65
2022-09-15T02:01:07.551Z,20.65
2022-09-15T02:03:21.055Z,20.63
2022-09-15T02:05:30.785Z,20.63
2022-09-15T02:07:43.291Z,20.64
2022-09-15T02:09:53.963Z,20.65
2022-09-15T02:12:05.549Z,20.65
2022-09-15T02:14:16.480Z,20.67
2022-09-15T02:16:24.039Z,20.67
2022-09-15T02:18:37.476Z,20.68
2022-09-15T02:20:48.729Z,20.68
2022-09-15T02:23:01.629Z,20.67
2022-09-15T02:25:09.702Z,20.69
2022-09-15T02:27:23.948Z,20.68
2022-09-15T02:29:32.122Z,20.69
2022-09-15T02:31:39.091Z,20.69
2022-09-15T02:33:48.588Z,20.67
2022-09-15T02:35:54.335Z,20.67
2022-09-15T02:38:00.619Z,20.65
2022-09-15T02:40:07.429Z,20.65
2022-09-15T02:42:12.447Z,20.64
2022-09-15T02:44:17.112Z,20.64
2022-09-15T02:46:23.142Z,20.64
2022-09-15T02:48:27.760Z,20.64
2022-09-15T02:50:32.517Z,20.66
2022-09-15T02:52:37.058Z,20.67
2022-09-15T02:54:41.661Z,20.69
2022-09-15T02:56:46.416Z,20.70
2022-09-15T02:58:51.256Z,20.70
2022-09-15T03:00:55.965Z,20.72
2022-09-15T03:03:00.649Z,20.73
2022-09-15T03:05:06.142Z,20.74
2022-09-15T03:07:10.785Z,20.75
2022-09-15T03:09:15.362Z,20.74
2022-09-15T03:11:22.256Z,20.70
2022-09-15T03:13:26.991Z,20.68
2022-09-15T03:15:31.715Z,20.66
2022-09-15T03:17:38.036Z,20.64
2022-09-15T03:19:42.712Z,20.61
2022-09-15T03:21:47.512Z,20.57
2022-09-15T03:23:52.342Z,20.54
2022-09-15T03:25:57.107Z,20.51
2022-09-15T03:28:01.928Z,20.50
2022-09-15T03:30:08.635Z,20.49
2022-09-15T03:32:13.273Z,20.47
2022-09-15T03:34:18.156Z,20.44
2022-09-15T03:36:22.733Z,20.43
2022-09-15T03:38:29.389Z,20.42
2022-09-15T03:40:34.187Z,20.41
2022-09-15T03:42:38.920Z,20.40
2022-09-15T03:44:43.597Z,20.38
2022-09-15T03:46:48.242Z,20.37
2022-09-15T03:48:52.846Z,20.37
2022-09-15T03:50:57.543Z,20.36
2022-09-15T03:53:02.741Z,20.36
2022-09-15T03:55:08.826Z,20.34
2022-09-15T03:57:13.503Z,20.34
2022-09-15T03:59:19.004Z,20.33
2022-09-15T04:01:24.050Z,20.33
2022-09-15T04:03:28.821Z,20.30
2022-09-15T04:05:33.668Z,20.29
2022-09-15T04:07:38.381Z,20.29
2022-09-15T04:09:43.192Z,20.28
2022-09-15T04:11:48.011Z,20.27
2022-09-15T04:13:54.032Z,20.26
2022-09-15T04:16:03.223Z,20.26
2022-09-15T04:18:07.924Z,20.25
2022-09-15T04:20:13.380Z,20.24
2022-09-15T04:22:18.160Z,20.24
2022-09-15T04:24:22.948Z,20.26
2022-09-15T04:26:30.854Z,20.26
2022-09-15T04:28:40.991Z,20.27
2022-09-15T04:30:46.158Z,20.28
2022-09-15T04:32:50.781Z,20.28
2022-09-15T04:34:55.464Z,20.28
2022-09-15T04:37:03.305Z,20.28
2022-09-15T04:39:08.072Z,20.28
2022-09-15T04:41:13.287Z,20.28
2022-09-15T04:43:17.969Z,20.27
2022-09-15T04:45:22.599Z,20.27
2022-09-15T04:47:27.281Z,20.28
2022-09-15T04:49:31.923Z,20.27
2022-09-15T04:51:36.735Z,20.27
2022-09-15T04:53:41.468Z,20.27
2022-09-15T04:55:46.253Z,20.27
2022-09-15T04:57:50.910Z,20.28
2022-09-15T04:59:55.602Z,20.28
2022-09-15T05:02:00.281Z,20.30
2022-09-15T05:04:06.059Z,20.34
2022-09-15T05:06:12.534Z,20.37
2022-09-15T05:08:17.199Z,20.41
2022-09-15T05:10:21.851Z,20.42
2022-09-15T05:12:26.588Z,20.46
2022-09-15T05:14:31.252Z,20.47
2022-09-15T05:16:36.012Z,20.50
2022-09-15T05:18:42.088Z,20.53
2022-09-15T05:20:46.815Z,20.56
2022-09-15T05:22:51.491Z,20.58
2022-09-15T05:24:56.254Z,20.61
2022-09-15T05:27:01.098Z,20.65
2022-09-15T05:29:05.752Z,20.71
2022-09-15T05:31:12.766Z,20.75
2022-09-15T05:33:17.527Z,20.79
2022-09-15T05:35:22.462Z,20.85
2022-09-15T05:37:27.205Z,20.88
2022-09-15T05:39:31.907Z,20.94
2022-09-15T05:41:36.719Z,20.97
2022-09-15T05:43:41.545Z,21.01
2022-09-15T05:45:53.602Z,21.03
2022-09-15T05:47:58.288Z,21.05
2022-09-15T05:50:03.001Z,21.07
2022-09-15T05:52:07.818Z,21.10
2022-09-15T05:54:12.534Z,21.12
2022-09-15T05:56:17.877Z,21.15
2022-09-15T05:58:22.633Z,21.18
2022-09-15T06:00:27.439Z,21.22
2022-09-15T06:02:32.256Z,21.26
2022-09-15T06:04:37.079Z,21.33
2022-09-15T06:06:41.826Z,21.41
2022-09-15T06:08:48.685Z,21.47
2022-09-15T06:10:54.085Z,21.53
2022-09-15T06:12:58.782Z,21.60
2022-09-15T06:15:03.630Z,21.66
2022-09-15T06:17:08.380Z,21.72
2022-09-15T06:19:13.223Z,21.77
2022-09-15T06:21:19.381Z,21.84
2022-09-15T06:23:24.099Z,21.89
2022-09-15T06:25:28.728Z,21.94
2022-09-15T06:27:33.694Z,21.98
2022-09-15T06:29:38.424Z,22.01
2022-09-15T06:31:43.097Z,22.03
2022-09-15T06:33:49.491Z,22.08
2022-09-15T06:35:54.319Z,22.14
2022-09-15T06:37:59.067Z,22.18
2022-09-15T06:40:04.622Z,22.20
2022-09-15T06:42:13.329Z,22.22
2022-09-15T06:44:19.885Z,22.25
2022-09-15T06:46:26.604Z,22.27
2022-09-15T06:48:34.330Z,22.29
2022-09-15T06:50:39.075Z,22.26
2022-09-15T06:52:43.880Z,22.28
2022-09-15T06:54:48.544Z,22.30
2022-09-15T06:56:53.394Z,22.32
2022-09-15T06:58:58.839Z,22.34
2022-09-15T07:01:04.903Z,22.38
2022-09-15T07:03:12.583Z,22.41
2022-09-15T07:05:17.416Z,22.42
2022-09-15T07:07:22.085Z,22.43
2022-09-15T07:09:26.776Z,22.46
2022-09-15T07:11:32.074Z,22.50
2022-09-15T07:13:37.501Z,22.52
2022-09-15T07:15:49.194Z,22.55
2022-09-15T07:17:53.817Z,22.59
2022-09-15T07:19:58.768Z,22.64
2022-09-15T07:22:03.475Z,22.69
2022-09-15T07:24:08.940Z,22.70
2022-09-15T07:26:15.560Z,22.74
2022-09-15T07:28:20.210Z,22.77
2022-09-15T07:30:24.935Z,22.81
2022-09-15T07:32:29.758Z,22.85
2022-09-15T07:34:34.663Z,22.89
2022-09-15T07:36:39.332Z,22.92
2022-09-15T07:38:45.958Z,22.96
2022-09-15T07:40:50.640Z,22.98
2022-09-15T07:42:55.350Z,23.03
2022-09-15T07:45:00.044Z,23.06
2022-09-15T07:47:04.897Z,23.07
2022-09-15T07:49:11.137Z,23.08
2022-09-15T07:51:16.908Z,23.08
2022-09-15T07:53:22.078Z,23.11
2022-09-15T07:55:27.022Z,23.13
2022-09-15T07:57:31.688Z,23.13
2022-09-15T07:59:40.559Z,23.14
2022-09-15T08:01:46.022Z,23.13
2022-09-15T08:03:52.626Z,23.12
2022-09-15T08:06:00.096Z,23.13
2022-09-15T08:08:05.316Z,23.12
2022-09-15T08:10:10.991Z,23.10
2022-09-15T08:12:16.003Z,23.10
2022-09-15T08:14:20.717Z,23.10
2022-09-15T08:16:26.212Z,23.09
2022-09-15T08:18:31.053Z,23.10
2022-09-15T08:20:37.922Z,23.11
2022-09-15T08:22:42.689Z,23.12
2022-09-15T08:24:47.422Z,23.12
2022-09-15T08:26:52.591Z,23.12
2022-09-15T08:28:57.259Z,23.10
2022-09-15T08:31:03.970Z,23.08
2022-09-15T08:33:08.725Z,23.08
2022-09-15T08:35:13.447Z,23.08
2022-09-15T08:37:18.167Z,23.09
2022-09-15T08:39:22.870Z,23.09
2022-09-15T08:41:32.045Z,23.09
2022-09-15T08:43:43.785Z,23.11
2022-09-15T08:45:53.395Z,23.12
2022-09-15T08:48:01.352Z,23.15
2022-09-15T08:50:13.171Z,23.22
2022-09-15T08:52:23.325Z,23.26
2022-09-15T08:54:30.980Z,23.28
2022-09-15T08:56:37.349Z,23.31
2022-09-15T08:58:42.057Z,23.33
2022-09-15T09:00:48.818Z,23.36
2022-09-15T09:03:09.084Z,23.39
2022-09-15T09:05:28.393Z,23.45
2022-09-15T09:07:51.754Z,23.50
2022-09-15T09:10:02.888Z,23.52
2022-09-15T09:12:20.783Z,23.56
2022-09-15T09:14:37.569Z,23.60
2022-09-15T09:17:00.418Z,23.62
2022-09-15T09:19:18.865Z,23.63
2022-09-15T09:21:29.350Z,23.63
2022-09-15T09:23:39.173Z,23.65
2022-09-15T09:25:44.890Z,23.65
2022-09-15T09:27:50.653Z,23.62
2022-09-15T09:30:01.744Z,23.61
2022-09-15T09:32:19.828Z,23.58
2022-09-15T09:34:33.811Z,23.54
2022-09-15T09:36:38.563Z,23.48
2022-09-15T09:38:45.262Z,23.43
2022-09-15T09:40:50.967Z,23.37
2022-09-15T09:42:55.780Z,23.32
2022-09-15T09:45:00.583Z,23.27
2022-09-15T09:47:05.376Z,23.22
2022-09-15T09:49:15.325Z,23.17
2022-09-15T09:51:35.015Z,23.11
2022-09-15T09:53:39.899Z,23.07
2022-09-15T09:55:44.672Z,23.05
2022-09-15T09:57:49.409Z,23.03
2022-09-15T09:59:54.119Z,22.98
2022-09-15T10:02:15.037Z,22.92
2022-09-15T10:04:22.686Z,22.86
2022-09-15T10:06:32.498Z,22.78
2022-09-15T10:08:38.768Z,22.66
2022-09-15T10:10:51.410Z,22.56
2022-09-15T10:12:59.201Z,22.50
2022-09-15T10:15:07.669Z,22.44
2022-09-15T10:17:15.135Z,22.39
2022-09-15T10:19:22.728Z,22.33
2022-09-15T10:21:27.524Z,22.27
2022-09-15T10:23:33.594Z,22.25
2022-09-15T10:25:58.072Z,22.24
2022-09-15T10:28:14.618Z,22.23
2022-09-15T10:30:21.056Z,22.22
2022-09-15T10:32:29.515Z,22.21
2022-09-15T10:34:36.180Z,22.18
2022-09-15T10:36:40.933Z,22.16
2022-09-15T10:38:48.721Z,22.16
2022-09-15T10:41:03.177Z,22.16
2022-09-15T10:43:20.226Z,22.13
2022-09-15T10:45:33.209Z,22.08
2022-09-15T10:47:53.138Z,22.08
2022-09-15T10:50:12.633Z,22.08
2022-09-15T10:52:29.664Z,22.06
2022-09-15T10:54:50.302Z,22.01
2022-09-15T10:57:02.600Z,21.98
2022-09-15T10:59:38.203Z,21.96
2022-09-15T11:02:03.018Z,21.91
2022-09-15T11:04:44.549Z,21.87
2022-09-15T11:06:54.638Z,21.84
2022-09-15T11:09:13.247Z,21.81
2022-09-15T11:11:29.208Z,21.77
2022-09-15T11:13:46.992Z,21.71
2022-09-15T11:16:06.388Z,21.67
2022-09-15T11:18:34.834Z,21.61
2022-09-15T11:21:00.449Z,21.58
2022-09-15T11:23:11.211Z,21.56
2022-09-15T11:25:20.463Z,21.54
2022-09-15T11:27:30.129Z,21.53
2022-09-15T11:29:41.868Z,21.53
2022-09-15T11:31:52.505Z,21.55
2022-09-15T11:34:02.908Z,21.54
2022-09-15T11:36:13.109Z,21.55
2022-09-15T11:38:28.333Z,21.56
2022-09-15T11:40:39.473Z,21.56
2022-09-15T11:42:51.566Z,21.54
2022-09-15T11:44:58.177Z,21.55
2022-09-15T11:47:14.115Z,21.54
2022-09-15T11:49:22.169Z,21.52
2022-09-15T11:51:28.928Z,21.50
2022-09-15T11:53:38.270Z,21.47
2022-09-15T11:55:49.202Z,21.45
2022-09-15T11:58:01.923Z,21.43
2022-09-15T12:00:11.757Z,21.42
2022-09-15T12:02:23.677Z,21.34
2022-09-15T12:04:32.076Z,21.29
2022-09-15T12:06:45.894Z,21.26
2022-09-15T12:08:57.640Z,21.23
2022-09-15T12:11:07.582Z,21.21
2022-09-15T12:13:18.694Z,21.17
2022-09-15T12:15:23.796Z,21.13
2022-09-15T12:17:35.710Z,21.12
2022-09-15T12:19:49.144Z,21.09
2022-09-15T12:21:58.751Z,21.06
2022-09-15T12:24:12.308Z,21.05
2022-09-15T12:26:20.809Z,21.05
2022-09-15T12:28:39.905Z,21.01
2022-09-15T12:30:44.594Z,20.98
2022-09-15T12:32:49.267Z,20.95
2022-09-15T12:35:04.033Z,20.94
2022-09-15T12:37:13.708Z,20.92
2022-09-15T12:39:29.473Z,20.89
2022-09-15T12:41:34.623Z,20.85
2022-09-15T12:43:39.401Z,20.81
2022-09-15T12:45:54.691Z,20.78
2022-09-15T12:48:05.920Z,20.77
2022-09-15T12:50:25.402Z,20.81
2022-09-15T12:52:30.511Z,20.83
2022-09-15T12:54:39.596Z,20.85
2022-09-15T12:56:53.393Z,20.90
2022-09-15T12:59:05.998Z,20.95
2022-09-15T13:01:45.705Z,21.01
2022-09-15T13:04:23.266Z,21.04
2022-09-15T13:06:28.712Z,21.08
2022-09-15T13:08:48.154Z,21.13
2022-09-15T13:11:04.852Z,21.19
2022-09-15T13:13:31.231Z,21.26
2022-09-15T13:15:44.863Z,21.36
2022-09-15T13:17:50.523Z,21.41
2022-09-15T13:19:58.697Z,21.49
2022-09-15T13:22:12.601Z,21.53
2022-09-15T13:24:20.245Z,21.57
2022-09-15T13:26:27.377Z,21.61
2022-09-15T13:28:32.434Z,21.62
2022-09-15T13:30:47.851Z,21.62
2022-09-15T13:33:01.249Z,21.61
2022-09-15T13:35:34.232Z,21.59
2022-09-15T13:38:30.750Z,21.58
2022-09-15T13:41:03.095Z,21.59
2022-09-15T13:43:27.768Z,21.64
2022-09-15T13:45:47.645Z,21.67
2022-09-15T13:48:06.128Z,21.71
2022-09-15T13:50:18.716Z,21.76
2022-09-15T13:52:43.241Z,21.84
2022-09-15T13:55:15.520Z,21.93
2022-09-15T13:58:54.567Z,21.99
2022-09-15T13:59:45.844Z,22.06
2022-09-15T14:01:51.023Z,22.15
2022-09-15T14:04:01.435Z,22.21
2022-09-15T14:06:14.093Z,22.28
2022-09-15T14:08:22.566Z,22.34
2022-09-15T14:10:45.578Z,22.38
2022-09-15T14:12:51.482Z,22.50
2022-09-15T14:14:57.879Z,22.66
2022-09-15T14:17:02.785Z,22.81
2022-09-15T14:19:30.582Z,22.91
2022-09-15T14:21:45.745Z,23.05
2022-09-15T14:23:52.810Z,23.14
2022-09-15T14:25:59.164Z,23.19
2022-09-15T14:28:22.777Z,23.25
2022-09-15T14:30:30.899Z,23.30
2022-09-15T14:32:43.789Z,23.33
2022-09-15T14:34:49.284Z,23.36
2022-09-15T14:37:03.370Z,23.37
2022-09-15T14:39:19.128Z,23.36
2022-09-15T14:41:23.996Z,23.28
2022-09-15T14:43:32.805Z,23.18
2022-09-15T14:48:14.060Z,23.10
2022-09-15T14:50:20.625Z,23.05
2022-09-15T14:52:30.626Z,23.06
2022-09-15T14:54:38.049Z,23.10
2022-09-15T14:56:44.675Z,23.14
2022-09-15T14:58:54.043Z,23.22
2022-09-15T15:01:04.573Z,23.24
2022-09-15T15:03:23.587Z,23.28
2022-09-15T15:05:34.649Z,23.29
2022-09-15T15:07:40.672Z,23.28
2022-09-15T15:09:48.571Z,23.27
2022-09-15T15:11:57.667Z,23.32
2022-09-15T15:14:05.833Z,23.34
2022-09-15T15:16:19.053Z,23.32
2022-09-15T15:18:37.984Z,23.30
2022-09-15T15:20:50.374Z,23.29
2022-09-15T15:23:17.320Z,23.35
2022-09-15T15:25:28.425Z,23.34
2022-09-15T15:27:50.838Z,23.27
2022-09-15T15:29:55.578Z,23.19
2022-09-15T15:32:09.996Z,23.13
2022-09-15T15:34:24.818Z,23.09
2022-09-15T15:36:30.379Z,23.05
2022-09-15T15:38:40.968Z,23.02
2022-09-15T15:40:48.438Z,22.96
2022-09-15T15:43:00.015Z,22.92
2022-09-15T15:45:22.718Z,22.94
2022-09-15T15:47:29.910Z,22.98
2022-09-15T15:49:42.356Z,22.99
2022-09-15T15:51:56.281Z,22.97
2022-09-15T15:54:00.882Z,22.94
2022-09-15T15:56:07.829Z,22.90
2022-09-15T15:58:13.974Z,22.85
2022-09-15T16:00:24.953Z,22.73
2022-09-15T16:02:30.376Z,22.62
2022-09-15T16:04:35.025Z,22.53
2022-09-15T16:06:40.509Z,22.46
2022-09-15T16:08:48.255Z,22.38
2022-09-15T16:10:56.257Z,22.28
2022-09-15T16:13:00.836Z,22.21
2022-09-15T16:15:12.280Z,22.12
2022-09-15T16:17:16.908Z,22.04
2022-09-15T16:19:21.518Z,21.96
2022-09-15T16:21:29.853Z,21.89
2022-09-15T16:23:34.454Z,21.81
2022-09-15T16:25:45.439Z,21.75
2022-09-15T16:27:50.132Z,21.68
2022-09-15T16:29:54.828Z,21.63
2022-09-15T16:31:59.819Z,21.56
2022-09-15T16:34:04.475Z,21.50
2022-09-15T16:36:13.197Z,21.46
2022-09-15T16:38:18.317Z,21.40
2022-09-15T16:40:24.338Z,21.34
2022-09-15T16:42:29.485Z,21.29
2022-09-15T16:44:34.185Z,21.25
2022-09-15T16:46:38.991Z,21.20
2022-09-15T16:48:44.488Z,21.18
2022-09-15T16:51:09.524Z,21.13
2022-09-15T16:53:16.178Z,21.07
2022-09-15T16:55:27.986Z,21.02
2022-09-15T16:57:32.572Z,20.97
2022-09-15T16:59:37.290Z,20.91
2022-09-15T17:01:41.990Z,20.87
2022-09-15T17:03:46.639Z,20.83
2022-09-15T17:05:52.727Z,20.79
2022-09-15T17:07:57.718Z,20.77
2022-09-15T17:10:02.637Z,20.74
2022-09-15T17:12:10.904Z,20.70
2022-09-15T17:14:17.127Z,20.67
2022-09-15T17:16:21.920Z,20.64
2022-09-15T17:18:27.229Z,20.62
2022-09-15T17:20:37.175Z,20.60
2022-09-15T17:22:44.035Z,20.55
2022-09-15T17:24:48.829Z,20.50
2022-09-15T17:26:53.856Z,20.48
2022-09-15T17:28:59.052Z,20.47
2022-09-15T17:31:05.413Z,20.44
2022-09-15T17:33:14.496Z,20.41
2022-09-15T17:35:23.073Z,20.40
2022-09-15T17:37:27.876Z,20.37
2022-09-15T17:39:32.672Z,20.35
2022-09-15T17:41:37.448Z,20.33
2022-09-15T17:43:42.127Z,20.31
2022-09-15T17:45:47.585Z,20.30
2022-09-15T17:47:52.795Z,20.29
2022-09-15T17:49:57.539Z,20.26
2022-09-15T17:52:02.559Z,20.22
2022-09-15T17:54:08.768Z,20.20
2022-09-15T17:56:14.262Z,20.18
2022-09-15T17:58:19.457Z,20.15
2022-09-15T18:00:26.686Z,20.13
2022-09-15T18:02:32.207Z,20.10
2022-09-15T18:04:37.395Z,20.06
2022-09-15T18:06:45.513Z,20.03
2022-09-15T18:08:50.789Z,20.02
2022-09-15T18:10:56.194Z,20.00
2022-09-15T18:13:02.119Z,19.99
2022-09-15T18:15:14.334Z,19.98
2022-09-15T18:17:19.337Z,19.97
2022-09-15T18:19:24.416Z,19.95
2022-09-15T18:21:30.740Z,19.93
2022-09-15T18:23:35.820Z,19.91
2022-09-15T18:25:41.135Z,19.89
2022-09-15T18:27:46.748Z,19.87
2022-09-15T18:29:51.796Z,19.84
2022-09-15T18:31:56.714Z,19.81
2022-09-15T18:34:01.970Z,19.79
2022-09-15T18:36:08.378Z,19.78
2022-09-15T18:38:14.065Z,19.77
2022-09-15T18:40:20.021Z,19.75
2022-09-15T18:42:27.363Z,19.73
2022-09-15T18:44:34.784Z,19.70
2022-09-15T18:46:39.976Z,19.68
2022-09-15T18:48:45.052Z,19.66
2022-09-15T18:50:49.682Z,19.64
2022-09-15T18:52:54.548Z,19.63
2022-09-15T18:54:59.618Z,19.64
2022-09-15T18:57:04.918Z,19.63
2022-09-15T18:59:10.227Z,19.62
2022-09-15T19:01:15.382Z,19.62
2022-09-15T19:03:20.736Z,19.62
2022-09-15T19:05:26.457Z,19.62
2022-09-15T19:07:31.535Z,19.62
2022-09-15T19:09:36.547Z,19.60
2022-09-15T19:11:41.713Z,19.58
2022-09-15T19:13:46.532Z,19.55
2022-09-15T19:15:53.439Z,19.52
2022-09-15T19:17:58.658Z,19.52
2022-09-15T19:20:04.699Z,19.52
2022-09-15T19:22:09.913Z,19.54
2022-09-15T19:24:15.178Z,19.52
2022-09-15T19:26:20.239Z,19.52
2022-09-15T19:28:25.372Z,19.52
2022-09-15T19:30:30.493Z,19.51
2022-09-15T19:32:35.499Z,19.50
2022-09-15T19:34:41.033Z,19.50
2022-09-15T19:36:46.057Z,19.50
2022-09-15T19:38:51.089Z,19.53
2022-09-15T19:41:06.717Z,19.52
2022-09-15T19:43:11.730Z,19.53
2022-09-15T19:45:16.657Z,19.56
2022-09-15T19:47:21.632Z,19.58
2022-09-15T19:49:26.823Z,19.60
2022-09-15T19:51:31.705Z,19.61
2022-09-15T19:53:37.236Z,19.61
2022-09-15T19:55:42.054Z,19.62
2022-09-15T19:57:47.214Z,19.62
2022-09-15T19:59:52.075Z,19.63
2022-09-15T20:01:56.964Z,19.63
2022-09-15T20:06:27.753Z,19.59
2022-09-15T20:08:36.349Z,19.55
2022-09-15T20:10:41.656Z,19.52
2022-09-15T20:12:46.317Z,19.51
2022-09-15T20:14:51.268Z,19.49
2022-09-15T20:16:58.716Z,19.46
2022-09-15T20:19:05.709Z,19.44
2022-09-15T20:21:17.990Z,19.42
2022-09-15T20:23:31.698Z,19.41
2022-09-15T20:25:36.350Z,19.39
2022-09-15T20:27:41.020Z,19.38
2022-09-15T20:29:45.933Z,19.37
2022-09-15T20:31:50.937Z,19.36
2022-09-15T20:33:55.706Z,19.33
2022-09-15T20:36:05.301Z,19.29
2022-09-15T20:38:10.193Z,19.26
2022-09-15T20:40:14.992Z,19.24
2022-09-15T20:42:19.738Z,19.22
2022-09-15T20:44:24.559Z,19.20
2022-09-15T20:46:29.506Z,19.18
2022-09-15T20:48:36.297Z,19.17
2022-09-15T20:50:40.939Z,19.17
2022-09-15T20:52:45.780Z,19.17
2022-09-15T20:54:50.454Z,19.16
2022-09-15T20:56:55.086Z,19.15
2022-09-15T20:59:00.590Z,19.14
2022-09-15T21:01:07.306Z,19.07
2022-09-15T21:03:11.964Z,18.95
2022-09-15T21:05:16.754Z,18.84
2022-09-15T21:07:21.537Z,18.70
2022-09-15T21:09:26.222Z,18.58
2022-09-15T21:11:30.982Z,18.45
2022-09-15T21:13:36.723Z,18.35
2022-09-15T21:15:41.426Z,18.28
2022-09-15T21:17:46.500Z,18.21
2022-09-15T21:19:51.174Z,18.16
2022-09-15T21:21:55.927Z,18.12
2022-09-15T21:24:02.191Z,18.08
2022-09-15T21:26:08.891Z,18.05
2022-09-15T21:28:13.715Z,18.03
2022-09-15T21:30:18.618Z,18.02
2022-09-15T21:32:23.465Z,18.00
2022-09-15T21:34:28.161Z,17.98
2022-09-15T21:36:32.905Z,17.97
2022-09-15T21:38:39.363Z,17.95
2022-09-15T21:40:48.573Z,17.94
2022-09-15T21:42:53.232Z,17.90
2022-09-15T21:44:57.932Z,17.86
2022-09-15T21:47:02.625Z,17.84
2022-09-15T21:49:07.338Z,17.82
2022-09-15T21:51:14.346Z,17.80
2022-09-15T21:53:19.732Z,17.74
2022-09-15T21:55:24.411Z,17.69
2022-09-15T21:57:29.093Z,17.66
2022-09-15T21:59:33.828Z,17.61
2022-09-15T22:01:39.438Z,17.59
2022-09-15T22:03:47.442Z,17.56
2022-09-15T22:05:52.143Z,17.53
2022-09-15T22:07:59.474Z,17.52
2022-09-15T22:10:08.137Z,17.51
2022-09-15T22:12:12.832Z,17.49
2022-09-15T22:14:17.971Z,17.46
2022-09-15T22:16:24.510Z,17.44
2022-09-15T22:18:29.476Z,17.40
2022-09-15T22:20:34.176Z,17.36
2022-09-15T22:22:38.806Z,17.32
2022-09-15T22:24:43.463Z,17.28
2022-09-15T22:26:48.059Z,17.25
2022-09-15T22:28:53.158Z,17.23
2022-09-15T22:31:00.641Z,17.21
2022-09-15T22:33:05.265Z,17.22
2022-09-15T22:35:10.629Z,17.21
2022-09-15T22:37:15.238Z,17.20
2022-09-15T22:39:19.988Z,17.19
2022-09-15T22:41:24.713Z,17.19
2022-09-15T22:43:29.323Z,17.18
2022-09-15T22:45:34.001Z,17.17
2022-09-15T22:47:38.666Z,17.15
2022-09-15T22:49:43.263Z,17.14
2022-09-15T22:51:47.919Z,17.13
2022-09-15T22:53:55.578Z,17.11
2022-09-15T22:56:07.993Z,17.09
2022-09-15T22:58:12.663Z,17.06
2022-09-15T23:00:17.882Z,17.05
2022-09-15T23:02:22.631Z,17.01
2022-09-15T23:04:27.414Z,16.99
2022-09-15T23:06:33.918Z,16.97
2022-09-15T23:08:38.615Z,16.93
2022-09-15T23:10:43.325Z,16.92
2022-09-15T23:12:47.965Z,16.91
2022-09-15T23:14:52.619Z,16.89
2022-09-15T23:16:57.156Z,16.88
2022-09-15T23:19:02.087Z,16.87
2022-09-15T23:21:08.506Z,16.86
2022-09-15T23:23:13.195Z,16.86
2022-09-15T23:25:17.988Z,16.85
2022-09-15T23:27:22.673Z,16.85
2022-09-15T23:29:27.333Z,16.84
2022-09-15T23:31:32.164Z,16.83
2022-09-15T23:33:36.867Z,16.83
2022-09-15T23:35:41.695Z,16.81
2022-09-15T23:37:46.424Z,16.79
2022-09-15T23:39:51.121Z,16.76
2022-09-15T23:41:55.934Z,16.72
2022-09-15T23:44:00.657Z,16.70
2022-09-15T23:46:06.400Z,16.66
2022-09-15T23:48:12.286Z,16.64
2022-09-15T23:50:20.395Z,16.60
2022-09-15T23:52:25.137Z,16.57
2022-09-15T23:54:29.794Z,16.56
2022-09-15T23:56:34.450Z,16.55
2022-09-15T23:58:39.380Z,16.52
